createdAt,value
2018-10-06T00:00:12.534Z,1006.74
2018-10-06T00:00:38.765Z,1006.76
2018-10-06T00:01:04.878Z,1006.73
2018-10-06T00:01:31.012Z,1006.71
2018-10-06T00:01:57.183Z,1006.75
2018-10-06T00:02:23.318Z,1006.73
2018-10-06T00:02:49.454Z,1006.77
2018-10-06T00:03:15.589Z,1006.75
2018-10-06T00:03:41.720Z,1006.76
2018-10-06T00:04:08.308Z,1006.72
2018-10-06T00:04:34.437Z,1006.74
2018-10-06T00:05:00.568Z,1006.73
2018-10-06T00:05:26.703Z,1006.74
2018-10-06T00:05:52.861Z,1006.73
2018-10-06T00:06:19.004Z,1006.71
2018-10-06T00:06:45.140Z,1006.7
2018-10-06T00:07:11.286Z,1006.72
2018-10-06T00:07:37.416Z,1006.71
2018-10-06T00:08:03.563Z,1006.68
2018-10-06T00:08:29.686Z,1006.69
2018-10-06T00:08:55.821Z,1006.69
2018-10-06T00:09:21.959Z,1006.67
2018-10-06T00:09:48.112Z,1006.69
2018-10-06T00:10:14.239Z,1006.71
2018-10-06T00:10:40.380Z,1006.68
2018-10-06T00:11:06.532Z,1006.67
2018-10-06T00:11:32.724Z,1006.7
2018-10-06T00:11:58.860Z,1006.66
2018-10-06T00:12:24.999Z,1006.68
2018-10-06T00:12:51.126Z,1006.68
2018-10-06T00:13:17.256Z,1006.68
2018-10-06T00:13:43.399Z,1006.71
2018-10-06T00:14:09.748Z,1006.66
2018-10-06T00:14:35.883Z,1006.71
2018-10-06T00:15:02.019Z,1006.68
2018-10-06T00:15:28.180Z,1006.64
2018-10-06T00:15:54.355Z,1006.68
2018-10-06T00:16:20.488Z,1006.67
2018-10-06T00:16:46.610Z,1006.7
2018-10-06T00:17:12.756Z,1006.67
2018-10-06T00:17:38.884Z,1006.67
2018-10-06T00:18:05.042Z,1006.66
2018-10-06T00:18:31.179Z,1006.66
2018-10-06T00:18:57.312Z,1006.67
2018-10-06T00:19:23.448Z,1006.67
2018-10-06T00:19:49.610Z,1006.65
2018-10-06T00:20:15.775Z,1006.68
2018-10-06T00:20:41.909Z,1006.65
2018-10-06T00:21:08.052Z,1006.68
2018-10-06T00:21:34.182Z,1006.65
2018-10-06T00:22:00.317Z,1006.61
2018-10-06T00:22:26.470Z,1006.61
2018-10-06T00:22:52.707Z,1006.61
2018-10-06T00:23:18.773Z,1006.62
2018-10-06T00:23:44.905Z,1006.59
2018-10-06T00:24:11.052Z,1006.59
2018-10-06T00:24:37.227Z,1006.59
2018-10-06T00:25:03.369Z,1006.58
2018-10-06T00:25:29.513Z,1006.58
2018-10-06T00:25:55.650Z,1006.57
2018-10-06T00:26:21.825Z,1006.58
2018-10-06T00:26:47.979Z,1006.57
2018-10-06T00:27:14.114Z,1006.56
2018-10-06T00:27:40.259Z,1006.56
2018-10-06T00:28:06.404Z,1006.57
2018-10-06T00:28:32.553Z,1006.54
2018-10-06T00:28:58.680Z,1006.57
2018-10-06T00:29:24.813Z,1006.57
2018-10-06T00:29:50.945Z,1006.59
2018-10-06T00:30:17.087Z,1006.57
2018-10-06T00:30:43.222Z,1006.57
2018-10-06T00:31:09.372Z,1006.57
2018-10-06T00:31:35.526Z,1006.58
2018-10-06T00:32:01.669Z,1006.55
2018-10-06T00:32:27.806Z,1006.58
2018-10-06T00:32:53.940Z,1006.56
2018-10-06T00:33:20.077Z,1006.55
2018-10-06T00:33:46.208Z,1006.57
2018-10-06T00:34:12.356Z,1006.54
2018-10-06T00:34:38.497Z,1006.56
2018-10-06T00:35:04.753Z,1006.51
2018-10-06T00:35:31.460Z,1006.54
2018-10-06T00:35:57.588Z,1006.54
2018-10-06T00:36:23.743Z,1006.53
2018-10-06T00:36:49.932Z,1006.54
2018-10-06T00:37:16.083Z,1006.56
2018-10-06T00:37:42.216Z,1006.52
2018-10-06T00:38:08.348Z,1006.52
2018-10-06T00:38:34.479Z,1006.54
2018-10-06T00:39:00.611Z,1006.53
2018-10-06T00:39:26.751Z,1006.51
2018-10-06T00:39:53.628Z,1006.51
2018-10-06T00:40:19.769Z,1006.53
2018-10-06T00:40:45.894Z,1006.52
2018-10-06T00:41:12.021Z,1006.49
2018-10-06T00:41:38.164Z,1006.48
2018-10-06T00:42:04.297Z,1006.5
2018-10-06T00:42:30.430Z,1006.51
2018-10-06T00:42:56.564Z,1006.48
2018-10-06T00:43:22.704Z,1006.47
2018-10-06T00:43:48.857Z,1006.45
2018-10-06T00:44:14.995Z,1006.5
2018-10-06T00:44:41.131Z,1006.5
2018-10-06T00:45:07.272Z,1006.48
2018-10-06T00:45:34.822Z,1006.49
2018-10-06T00:46:00.952Z,1006.49
2018-10-06T00:46:27.085Z,1006.47
2018-10-06T00:46:53.231Z,1006.5
2018-10-06T00:47:19.383Z,1006.46
2018-10-06T00:47:45.507Z,1006.5
2018-10-06T00:48:11.641Z,1006.45
2018-10-06T00:48:37.775Z,1006.45
2018-10-06T00:49:03.905Z,1006.54
2018-10-06T00:49:30.067Z,1006.51
2018-10-06T00:49:56.210Z,1006.48
2018-10-06T00:50:22.370Z,1006.48
2018-10-06T00:50:48.511Z,1006.48
2018-10-06T00:51:14.662Z,1006.47
2018-10-06T00:51:40.859Z,1006.46
2018-10-06T00:52:07.014Z,1006.48
2018-10-06T00:52:33.146Z,1006.44
2018-10-06T00:52:59.292Z,1006.46
2018-10-06T00:53:25.424Z,1006.47
2018-10-06T00:53:51.561Z,1006.46
2018-10-06T00:54:17.703Z,1006.45
2018-10-06T00:54:43.839Z,1006.44
2018-10-06T00:55:09.991Z,1006.45
2018-10-06T00:55:36.122Z,1006.46
2018-10-06T00:56:02.261Z,1006.4
2018-10-06T00:56:28.394Z,1006.38
2018-10-06T00:56:54.533Z,1006.4
2018-10-06T00:57:20.666Z,1006.38
2018-10-06T00:57:46.807Z,1006.35
2018-10-06T00:58:12.933Z,1006.36
2018-10-06T00:58:39.088Z,1006.36
2018-10-06T00:59:05.228Z,1006.32
2018-10-06T00:59:31.375Z,1006.32
2018-10-06T00:59:57.510Z,1006.33
2018-10-06T01:00:23.644Z,1006.31
2018-10-06T01:00:49.787Z,1006.28
2018-10-06T01:01:15.946Z,1006.32
2018-10-06T01:01:42.091Z,1006.34
2018-10-06T01:02:08.220Z,1006.3
2018-10-06T01:02:34.355Z,1006.3
2018-10-06T01:03:00.487Z,1006.28
2018-10-06T01:03:26.646Z,1006.28
2018-10-06T01:03:52.778Z,1006.28
2018-10-06T01:04:18.916Z,1006.28
2018-10-06T01:04:45.074Z,1006.31
2018-10-06T01:05:11.204Z,1006.29
2018-10-06T01:05:37.351Z,1006.28
2018-10-06T01:06:03.490Z,1006.3
2018-10-06T01:06:29.654Z,1006.31
2018-10-06T01:06:55.806Z,1006.3
2018-10-06T01:07:21.942Z,1006.32
2018-10-06T01:07:48.092Z,1006.32
2018-10-06T01:08:14.233Z,1006.34
2018-10-06T01:08:40.358Z,1006.31
2018-10-06T01:09:06.484Z,1006.33
2018-10-06T01:09:32.619Z,1006.28
2018-10-06T01:09:58.754Z,1006.31
2018-10-06T01:10:24.908Z,1006.3
2018-10-06T01:10:51.050Z,1006.31
2018-10-06T01:11:17.183Z,1006.3
2018-10-06T01:11:43.309Z,1006.27
2018-10-06T01:12:09.450Z,1006.27
2018-10-06T01:12:35.633Z,1006.32
2018-10-06T01:13:01.763Z,1006.25
2018-10-06T01:13:27.895Z,1006.29
2018-10-06T01:13:54.029Z,1006.27
2018-10-06T01:14:20.211Z,1006.28
2018-10-06T01:14:46.343Z,1006.26
2018-10-06T01:15:12.474Z,1006.26
2018-10-06T01:15:38.613Z,1006.26
2018-10-06T01:16:04.752Z,1006.23
2018-10-06T01:16:30.878Z,1006.24
2018-10-06T01:16:57.015Z,1006.21
2018-10-06T01:17:23.144Z,1006.21
2018-10-06T01:17:49.281Z,1006.19
2018-10-06T01:18:15.410Z,1006.16
2018-10-06T01:18:41.544Z,1006.17
2018-10-06T01:19:07.676Z,1006.21
2018-10-06T01:19:33.809Z,1006.15
2018-10-06T01:19:59.964Z,1006.17
2018-10-06T01:20:26.101Z,1006.17
2018-10-06T01:20:52.230Z,1006.15
2018-10-06T01:21:18.355Z,1006.15
2018-10-06T01:21:44.490Z,1006.12
2018-10-06T01:22:10.627Z,1006.12
2018-10-06T01:22:36.808Z,1006.12
2018-10-06T01:23:02.935Z,1006.12
2018-10-06T01:23:29.074Z,1006.13
2018-10-06T01:23:55.202Z,1006.09
2018-10-06T01:24:21.336Z,1006.13
2018-10-06T01:24:47.471Z,1006.15
2018-10-06T01:25:13.606Z,1006.12
2018-10-06T01:25:39.736Z,1006.13
2018-10-06T01:26:05.878Z,1006.12
2018-10-06T01:26:32.036Z,1006.1
2018-10-06T01:26:58.190Z,1006.11
2018-10-06T01:27:24.323Z,1006.11
2018-10-06T01:27:50.456Z,1006.09
2018-10-06T01:28:16.589Z,1006.1
2018-10-06T01:28:42.720Z,1006.1
2018-10-06T01:29:08.849Z,1006.14
2018-10-06T01:29:34.992Z,1006.08
2018-10-06T01:30:01.120Z,1006.07
2018-10-06T01:30:27.250Z,1006.07
2018-10-06T01:30:53.386Z,1006.1
2018-10-06T01:31:19.519Z,1006.08
2018-10-06T01:31:45.646Z,1006.13
2018-10-06T01:32:11.799Z,1006.09
2018-10-06T01:32:37.929Z,1006.07
2018-10-06T01:33:04.091Z,1006.11
2018-10-06T01:33:30.220Z,1006.09
2018-10-06T01:33:56.357Z,1006.08
2018-10-06T01:34:22.491Z,1006.08
2018-10-06T01:34:48.628Z,1006.09
2018-10-06T01:35:14.784Z,1006.1
2018-10-06T01:35:40.944Z,1006.1
2018-10-06T01:36:07.077Z,1006.09
2018-10-06T01:36:33.236Z,1006.08
2018-10-06T01:36:59.393Z,1006.06
2018-10-06T01:37:25.551Z,1006.07
2018-10-06T01:37:51.681Z,1006.07
2018-10-06T01:38:17.816Z,1006.08
2018-10-06T01:38:43.958Z,1006.08
2018-10-06T01:39:10.097Z,1006.03
2018-10-06T01:39:36.261Z,1006.04
2018-10-06T01:40:02.391Z,1006.07
2018-10-06T01:40:28.522Z,1006.06
2018-10-06T01:40:54.651Z,1006.02
2018-10-06T01:41:20.812Z,1006.01
2018-10-06T01:41:46.941Z,1005.99
2018-10-06T01:42:13.071Z,1006
2018-10-06T01:42:39.235Z,1006.03
2018-10-06T01:43:05.371Z,1006.04
2018-10-06T01:43:31.503Z,1005.99
2018-10-06T01:43:57.631Z,1006.01
2018-10-06T01:44:23.769Z,1006.01
2018-10-06T01:44:49.899Z,1006
2018-10-06T01:45:16.092Z,1005.99
2018-10-06T01:45:42.216Z,1006.01
2018-10-06T01:46:08.350Z,1006.02
2018-10-06T01:46:34.480Z,1006
2018-10-06T01:47:00.618Z,1005.98
2018-10-06T01:47:26.751Z,1005.94
2018-10-06T01:47:52.912Z,1005.98
2018-10-06T01:48:19.049Z,1005.97
2018-10-06T01:48:45.179Z,1005.95
2018-10-06T01:49:11.314Z,1005.93
2018-10-06T01:49:37.454Z,1005.95
2018-10-06T01:50:03.818Z,1005.95
2018-10-06T01:50:29.721Z,1005.94
2018-10-06T01:50:55.893Z,1005.94
2018-10-06T01:51:22.017Z,1005.92
2018-10-06T01:51:48.155Z,1005.91
2018-10-06T01:52:14.285Z,1005.9
2018-10-06T01:52:40.446Z,1005.87
2018-10-06T01:53:06.583Z,1005.89
2018-10-06T01:53:32.738Z,1005.87
2018-10-06T01:53:58.870Z,1005.89
2018-10-06T01:54:25.010Z,1005.84
2018-10-06T01:54:51.178Z,1005.87
2018-10-06T01:55:17.332Z,1005.84
2018-10-06T01:55:43.466Z,1005.84
2018-10-06T01:56:09.603Z,1005.84
2018-10-06T01:56:35.736Z,1005.83
2018-10-06T01:57:01.914Z,1005.81
2018-10-06T01:57:28.051Z,1005.85
2018-10-06T01:57:54.210Z,1005.82
2018-10-06T01:58:20.345Z,1005.82
2018-10-06T01:58:46.478Z,1005.86
2018-10-06T01:59:12.628Z,1005.81
2018-10-06T01:59:38.759Z,1005.82
2018-10-06T02:00:04.887Z,1005.79
2018-10-06T02:00:31.041Z,1005.81
2018-10-06T02:00:57.174Z,1005.81
2018-10-06T02:01:23.353Z,1005.8
2018-10-06T02:01:49.487Z,1005.79
2018-10-06T02:02:15.621Z,1005.78
2018-10-06T02:02:41.757Z,1005.78
2018-10-06T02:03:07.892Z,1005.79
2018-10-06T02:03:34.025Z,1005.78
2018-10-06T02:04:00.156Z,1005.75
2018-10-06T02:04:26.307Z,1005.74
2018-10-06T02:04:52.437Z,1005.73
2018-10-06T02:05:18.577Z,1005.77
2018-10-06T02:05:44.738Z,1005.72
2018-10-06T02:06:10.869Z,1005.72
2018-10-06T02:06:37.005Z,1005.74
2018-10-06T02:07:03.145Z,1005.75
2018-10-06T02:07:29.279Z,1005.71
2018-10-06T02:07:55.461Z,1005.72
2018-10-06T02:08:21.615Z,1005.7
2018-10-06T02:08:47.754Z,1005.67
2018-10-06T02:09:13.887Z,1005.69
2018-10-06T02:09:40.009Z,1005.67
2018-10-06T02:10:06.141Z,1005.67
2018-10-06T02:10:32.275Z,1005.67
2018-10-06T02:10:58.411Z,1005.68
2018-10-06T02:11:24.546Z,1005.66
2018-10-06T02:11:50.700Z,1005.64
2018-10-06T02:12:16.841Z,1005.62
2018-10-06T02:12:42.977Z,1005.64
2018-10-06T02:13:09.128Z,1005.61
2018-10-06T02:13:35.264Z,1005.6
2018-10-06T02:14:01.395Z,1005.61
2018-10-06T02:14:27.563Z,1005.59
2018-10-06T02:14:53.712Z,1005.65
2018-10-06T02:15:19.839Z,1005.63
2018-10-06T02:15:46.004Z,1005.66
2018-10-06T02:16:12.165Z,1005.62
2018-10-06T02:16:38.322Z,1005.6
2018-10-06T02:17:04.450Z,1005.57
2018-10-06T02:17:30.612Z,1005.66
2018-10-06T02:17:56.735Z,1005.63
2018-10-06T02:18:22.867Z,1005.6
2018-10-06T02:18:49.028Z,1005.6
2018-10-06T02:19:15.158Z,1005.63
2018-10-06T02:19:41.314Z,1005.58
2018-10-06T02:20:07.462Z,1005.58
2018-10-06T02:20:33.595Z,1005.61
2018-10-06T02:20:59.731Z,1005.58
2018-10-06T02:21:25.886Z,1005.56
2018-10-06T02:21:52.043Z,1005.58
2018-10-06T02:22:18.181Z,1005.58
2018-10-06T02:22:44.310Z,1005.56
2018-10-06T02:23:10.446Z,1005.59
2018-10-06T02:23:36.572Z,1005.57
2018-10-06T02:24:02.703Z,1005.58
2018-10-06T02:24:28.864Z,1005.59
2018-10-06T02:24:55.010Z,1005.6
2018-10-06T02:25:21.137Z,1005.59
2018-10-06T02:25:47.286Z,1005.6
2018-10-06T02:26:13.419Z,1005.63
2018-10-06T02:26:39.558Z,1005.6
2018-10-06T02:27:05.711Z,1005.61
2018-10-06T02:27:31.841Z,1005.61
2018-10-06T02:27:57.977Z,1005.63
2018-10-06T02:28:24.114Z,1005.6
2018-10-06T02:28:50.252Z,1005.6
2018-10-06T02:29:16.388Z,1005.59
2018-10-06T02:29:42.521Z,1005.6
2018-10-06T02:30:08.766Z,1005.58
2018-10-06T02:30:34.836Z,1005.61
2018-10-06T02:31:00.968Z,1005.6
2018-10-06T02:31:27.103Z,1005.58
2018-10-06T02:31:53.260Z,1005.57
2018-10-06T02:32:19.395Z,1005.58
2018-10-06T02:32:45.572Z,1005.6
2018-10-06T02:33:11.727Z,1005.61
2018-10-06T02:33:37.905Z,1005.59
2018-10-06T02:34:04.036Z,1005.58
2018-10-06T02:34:30.169Z,1005.6
2018-10-06T02:34:56.303Z,1005.59
2018-10-06T02:35:22.437Z,1005.59
2018-10-06T02:35:48.567Z,1005.6
2018-10-06T02:36:14.702Z,1005.62
2018-10-06T02:36:40.906Z,1005.61
2018-10-06T02:37:06.986Z,1005.61
2018-10-06T02:37:33.132Z,1005.62
2018-10-06T02:37:59.263Z,1005.62
2018-10-06T02:38:25.420Z,1005.63
2018-10-06T02:38:51.580Z,1005.64
2018-10-06T02:39:17.738Z,1005.65
2018-10-06T02:39:43.867Z,1005.6
2018-10-06T02:40:10.000Z,1005.65
2018-10-06T02:40:36.136Z,1005.63
2018-10-06T02:41:02.272Z,1005.63
2018-10-06T02:41:28.425Z,1005.68
2018-10-06T02:41:54.580Z,1005.67
2018-10-06T02:42:20.710Z,1005.66
2018-10-06T02:42:46.866Z,1005.64
2018-10-06T02:43:13.002Z,1005.67
2018-10-06T02:43:39.160Z,1005.65
2018-10-06T02:44:05.292Z,1005.64
2018-10-06T02:44:31.440Z,1005.66
2018-10-06T02:44:57.570Z,1005.69
2018-10-06T02:45:23.727Z,1005.67
2018-10-06T02:45:49.861Z,1005.66
2018-10-06T02:46:16.012Z,1005.66
2018-10-06T02:46:42.148Z,1005.68
2018-10-06T02:47:08.301Z,1005.67
2018-10-06T02:47:34.449Z,1005.67
2018-10-06T02:48:00.568Z,1005.68
2018-10-06T02:48:26.705Z,1005.73
2018-10-06T02:48:52.843Z,1005.71
2018-10-06T02:49:18.975Z,1005.7
2018-10-06T02:49:45.130Z,1005.66
2018-10-06T02:50:11.259Z,1005.69
2018-10-06T02:50:37.397Z,1005.66
2018-10-06T02:51:03.554Z,1005.67
2018-10-06T02:51:29.689Z,1005.67
2018-10-06T02:51:55.856Z,1005.69
2018-10-06T02:52:21.986Z,1005.66
2018-10-06T02:52:48.118Z,1005.69
2018-10-06T02:53:14.247Z,1005.7
2018-10-06T02:53:40.386Z,1005.73
2018-10-06T02:54:06.513Z,1005.74
2018-10-06T02:54:32.643Z,1005.71
2018-10-06T02:54:58.822Z,1005.72
2018-10-06T02:55:24.972Z,1005.7
2018-10-06T02:55:51.103Z,1005.7
2018-10-06T02:56:17.241Z,1005.7
2018-10-06T02:56:43.385Z,1005.67
2018-10-06T02:57:09.524Z,1005.67
2018-10-06T02:57:35.705Z,1005.67
2018-10-06T02:58:01.839Z,1005.69
2018-10-06T02:58:27.974Z,1005.67
2018-10-06T02:58:54.104Z,1005.67
2018-10-06T02:59:20.241Z,1005.69
2018-10-06T02:59:46.374Z,1005.67
2018-10-06T03:00:12.538Z,1005.68
2018-10-06T03:00:38.685Z,1005.66
2018-10-06T03:01:04.842Z,1005.65
2018-10-06T03:01:30.998Z,1005.67
2018-10-06T03:01:57.128Z,1005.66
2018-10-06T03:02:23.305Z,1005.62
2018-10-06T03:02:49.441Z,1005.64
2018-10-06T03:03:15.593Z,1005.59
2018-10-06T03:03:41.714Z,1005.63
2018-10-06T03:04:07.845Z,1005.64
2018-10-06T03:04:33.976Z,1005.61
2018-10-06T03:05:00.113Z,1005.64
2018-10-06T03:05:26.241Z,1005.6
2018-10-06T03:05:52.369Z,1005.64
2018-10-06T03:06:18.507Z,1005.61
2018-10-06T03:06:44.683Z,1005.64
2018-10-06T03:07:10.815Z,1005.63
2018-10-06T03:07:36.951Z,1005.62
2018-10-06T03:08:03.084Z,1005.66
2018-10-06T03:08:29.219Z,1005.63
2018-10-06T03:08:55.353Z,1005.67
2018-10-06T03:09:21.513Z,1005.68
2018-10-06T03:09:47.646Z,1005.62
2018-10-06T03:10:13.807Z,1005.61
2018-10-06T03:10:39.933Z,1005.59
2018-10-06T03:11:06.084Z,1005.56
2018-10-06T03:11:32.243Z,1005.59
2018-10-06T03:11:58.382Z,1005.54
2018-10-06T03:12:24.541Z,1005.58
2018-10-06T03:12:50.678Z,1005.55
2018-10-06T03:13:16.812Z,1005.51
2018-10-06T03:13:42.941Z,1005.54
2018-10-06T03:14:09.080Z,1005.55
2018-10-06T03:14:35.258Z,1005.56
2018-10-06T03:15:01.389Z,1005.55
2018-10-06T03:15:27.530Z,1005.58
2018-10-06T03:15:53.663Z,1005.56
2018-10-06T03:16:19.828Z,1005.57
2018-10-06T03:16:46.005Z,1005.52
2018-10-06T03:17:12.156Z,1005.54
2018-10-06T03:17:38.302Z,1005.55
2018-10-06T03:18:04.443Z,1005.56
2018-10-06T03:18:30.564Z,1005.53
2018-10-06T03:18:56.695Z,1005.53
2018-10-06T03:19:22.830Z,1005.54
2018-10-06T03:19:48.957Z,1005.54
2018-10-06T03:20:15.090Z,1005.51
2018-10-06T03:20:41.224Z,1005.53
2018-10-06T03:21:07.385Z,1005.51
2018-10-06T03:21:33.533Z,1005.52
2018-10-06T03:21:59.691Z,1005.54
2018-10-06T03:22:25.828Z,1005.5
2018-10-06T03:22:51.991Z,1005.49
2018-10-06T03:23:18.118Z,1005.5
2018-10-06T03:23:44.248Z,1005.49
2018-10-06T03:24:10.376Z,1005.51
2018-10-06T03:24:36.547Z,1005.51
2018-10-06T03:25:02.708Z,1005.52
2018-10-06T03:25:28.836Z,1005.51
2018-10-06T03:25:54.974Z,1005.5
2018-10-06T03:26:21.124Z,1005.49
2018-10-06T03:26:47.277Z,1005.46
2018-10-06T03:27:13.418Z,1005.42
2018-10-06T03:27:39.563Z,1005.45
2018-10-06T03:28:05.721Z,1005.5
2018-10-06T03:28:31.853Z,1005.43
2018-10-06T03:28:57.987Z,1005.43
2018-10-06T03:29:24.139Z,1005.46
2018-10-06T03:29:50.269Z,1005.44
2018-10-06T03:30:16.448Z,1005.45
2018-10-06T03:30:42.628Z,1005.48
2018-10-06T03:31:08.803Z,1005.41
2018-10-06T03:31:34.958Z,1005.41
2018-10-06T03:32:01.114Z,1005.4
2018-10-06T03:32:27.264Z,1005.4
2018-10-06T03:32:53.422Z,1005.36
2018-10-06T03:33:19.560Z,1005.4
2018-10-06T03:33:45.692Z,1005.36
2018-10-06T03:34:11.848Z,1005.35
2018-10-06T03:34:37.979Z,1005.32
2018-10-06T03:35:04.119Z,1005.34
2018-10-06T03:35:30.249Z,1005.32
2018-10-06T03:35:56.382Z,1005.35
2018-10-06T03:36:22.540Z,1005.34
2018-10-06T03:36:48.718Z,1005.3
2018-10-06T03:37:14.849Z,1005.34
2018-10-06T03:37:41.006Z,1005.33
2018-10-06T03:38:07.150Z,1005.33
2018-10-06T03:38:33.284Z,1005.34
2018-10-06T03:38:59.416Z,1005.34
2018-10-06T03:39:25.600Z,1005.36
2018-10-06T03:39:51.725Z,1005.33
2018-10-06T03:40:17.950Z,1005.34
2018-10-06T03:40:44.059Z,1005.35
2018-10-06T03:41:10.204Z,1005.35
2018-10-06T03:41:36.333Z,1005.35
2018-10-06T03:42:02.488Z,1005.35
2018-10-06T03:42:28.654Z,1005.31
2018-10-06T03:42:54.791Z,1005.34
2018-10-06T03:43:20.918Z,1005.35
2018-10-06T03:43:47.078Z,1005.31
2018-10-06T03:44:13.238Z,1005.33
2018-10-06T03:44:39.373Z,1005.35
2018-10-06T03:45:05.502Z,1005.35
2018-10-06T03:45:31.634Z,1005.31
2018-10-06T03:45:57.763Z,1005.3
2018-10-06T03:46:23.919Z,1005.31
2018-10-06T03:46:50.093Z,1005.33
2018-10-06T03:47:16.248Z,1005.28
2018-10-06T03:47:42.411Z,1005.27
2018-10-06T03:48:08.538Z,1005.27
2018-10-06T03:48:34.671Z,1005.25
2018-10-06T03:49:00.800Z,1005.22
2018-10-06T03:49:26.935Z,1005.24
2018-10-06T03:49:53.058Z,1005.23
2018-10-06T03:50:19.238Z,1005.24
2018-10-06T03:50:45.369Z,1005.2
2018-10-06T03:51:11.495Z,1005.22
2018-10-06T03:51:37.629Z,1005.21
2018-10-06T03:52:03.760Z,1005.2
2018-10-06T03:52:29.922Z,1005.2
2018-10-06T03:52:56.047Z,1005.22
2018-10-06T03:53:22.232Z,1005.21
2018-10-06T03:53:48.389Z,1005.19
2018-10-06T03:54:14.519Z,1005.2
2018-10-06T03:54:40.677Z,1005.18
2018-10-06T03:55:06.806Z,1005.2
2018-10-06T03:55:32.941Z,1005.19
2018-10-06T03:55:59.133Z,1005.18
2018-10-06T03:56:25.222Z,1005.19
2018-10-06T03:56:51.382Z,1005.19
2018-10-06T03:57:17.532Z,1005.17
2018-10-06T03:57:43.720Z,1005.13
2018-10-06T03:58:09.857Z,1005.16
2018-10-06T03:58:36.013Z,1005.19
2018-10-06T03:59:02.144Z,1005.12
2018-10-06T03:59:28.299Z,1005.11
2018-10-06T03:59:54.458Z,1005.11
2018-10-06T04:00:20.590Z,1005.12
2018-10-06T04:00:46.719Z,1005.1
2018-10-06T04:01:12.877Z,1005.12
2018-10-06T04:01:39.008Z,1005.09
2018-10-06T04:02:05.142Z,1005.11
2018-10-06T04:02:31.271Z,1005.13
2018-10-06T04:02:57.433Z,1005.11
2018-10-06T04:03:23.610Z,1005.1
2018-10-06T04:03:49.744Z,1005.11
2018-10-06T04:04:15.900Z,1005.12
2018-10-06T04:04:42.049Z,1005.11
2018-10-06T04:05:08.212Z,1005.13
2018-10-06T04:05:34.365Z,1005.07
2018-10-06T04:06:00.502Z,1005.13
2018-10-06T04:06:26.651Z,1005.1
2018-10-06T04:06:52.803Z,1005.1
2018-10-06T04:07:18.937Z,1005.11
2018-10-06T04:07:45.092Z,1005.09
2018-10-06T04:08:11.267Z,1005.12
2018-10-06T04:08:37.402Z,1005.1
2018-10-06T04:09:03.523Z,1005.1
2018-10-06T04:09:29.654Z,1005.06
2018-10-06T04:09:55.815Z,1005.05
2018-10-06T04:10:21.971Z,1005.1
2018-10-06T04:10:48.103Z,1005.06
2018-10-06T04:11:14.231Z,1005.04
2018-10-06T04:11:40.359Z,1005.05
2018-10-06T04:12:06.518Z,1005.05
2018-10-06T04:12:32.656Z,1005.05
2018-10-06T04:12:58.788Z,1005.08
2018-10-06T04:13:24.920Z,1005.06
2018-10-06T04:13:51.052Z,1005.05
2018-10-06T04:14:17.195Z,1005.08
2018-10-06T04:14:43.361Z,1005.06
2018-10-06T04:15:09.495Z,1005.09
2018-10-06T04:15:35.649Z,1005.05
2018-10-06T04:16:01.805Z,1005.06
2018-10-06T04:16:27.985Z,1005.04
2018-10-06T04:16:54.118Z,1005.07
2018-10-06T04:17:20.265Z,1005.06
2018-10-06T04:17:46.403Z,1005.08
2018-10-06T04:18:12.549Z,1005.07
2018-10-06T04:18:38.711Z,1005.08
2018-10-06T04:19:04.898Z,1005.06
2018-10-06T04:19:31.031Z,1005.06
2018-10-06T04:19:57.178Z,1005.07
2018-10-06T04:20:23.330Z,1005.08
2018-10-06T04:20:49.460Z,1005.03
2018-10-06T04:21:15.598Z,1004.99
2018-10-06T04:21:41.730Z,1004.99
2018-10-06T04:22:07.886Z,1005.02
2018-10-06T04:22:34.021Z,1005.05
2018-10-06T04:23:00.153Z,1005.02
2018-10-06T04:23:26.313Z,1005.01
2018-10-06T04:23:52.466Z,1005.03
2018-10-06T04:24:18.597Z,1005.04
2018-10-06T04:24:44.750Z,1005.01
2018-10-06T04:25:10.884Z,1005
2018-10-06T04:25:37.011Z,1004.99
2018-10-06T04:26:03.167Z,1005.01
2018-10-06T04:26:29.303Z,1005.02
2018-10-06T04:26:55.440Z,1005
2018-10-06T04:27:21.574Z,1005.02
2018-10-06T04:27:47.699Z,1004.98
2018-10-06T04:28:13.844Z,1005.01
2018-10-06T04:28:40.054Z,1004.99
2018-10-06T04:29:06.181Z,1004.98
2018-10-06T04:29:32.310Z,1004.96
2018-10-06T04:29:58.441Z,1004.95
2018-10-06T04:30:24.577Z,1004.98
2018-10-06T04:30:50.719Z,1004.96
2018-10-06T04:31:16.851Z,1004.9
2018-10-06T04:31:43.011Z,1004.9
2018-10-06T04:32:09.156Z,1004.9
2018-10-06T04:32:35.359Z,1004.9
2018-10-06T04:33:01.501Z,1004.89
2018-10-06T04:33:27.652Z,1004.88
2018-10-06T04:33:53.840Z,1004.91
2018-10-06T04:34:19.975Z,1004.88
2018-10-06T04:34:46.107Z,1004.87
2018-10-06T04:35:12.254Z,1004.86
2018-10-06T04:35:38.411Z,1004.83
2018-10-06T04:36:04.541Z,1004.84
2018-10-06T04:36:30.671Z,1004.85
2018-10-06T04:36:56.807Z,1004.86
2018-10-06T04:37:22.944Z,1004.86
2018-10-06T04:37:49.084Z,1004.89
2018-10-06T04:38:15.209Z,1004.85
2018-10-06T04:38:41.352Z,1004.83
2018-10-06T04:39:07.485Z,1004.82
2018-10-06T04:39:33.643Z,1004.81
2018-10-06T04:39:59.795Z,1004.8
2018-10-06T04:40:25.955Z,1004.83
2018-10-06T04:40:52.113Z,1004.84
2018-10-06T04:41:18.245Z,1004.8
2018-10-06T04:41:44.394Z,1004.84
2018-10-06T04:42:10.535Z,1004.83
2018-10-06T04:42:36.665Z,1004.81
2018-10-06T04:43:02.790Z,1004.78
2018-10-06T04:43:28.926Z,1004.77
2018-10-06T04:43:55.071Z,1004.79
2018-10-06T04:44:21.205Z,1004.82
2018-10-06T04:44:47.340Z,1004.8
2018-10-06T04:45:13.521Z,1004.77
2018-10-06T04:45:39.677Z,1004.78
2018-10-06T04:46:05.833Z,1004.78
2018-10-06T04:46:31.959Z,1004.78
2018-10-06T04:46:58.119Z,1004.76
2018-10-06T04:47:24.250Z,1004.8
2018-10-06T04:47:50.385Z,1004.76
2018-10-06T04:48:16.519Z,1004.75
2018-10-06T04:48:42.655Z,1004.7
2018-10-06T04:49:08.840Z,1004.78
2018-10-06T04:49:34.973Z,1004.73
2018-10-06T04:50:01.116Z,1004.74
2018-10-06T04:50:27.270Z,1004.71
2018-10-06T04:50:53.401Z,1004.73
2018-10-06T04:51:19.554Z,1004.72
2018-10-06T04:51:45.709Z,1004.71
2018-10-06T04:52:11.869Z,1004.72
2018-10-06T04:52:38.028Z,1004.72
2018-10-06T04:53:04.203Z,1004.7
2018-10-06T04:53:30.314Z,1004.7
2018-10-06T04:53:56.455Z,1004.69
2018-10-06T04:54:22.606Z,1004.73
2018-10-06T04:54:48.780Z,1004.71
2018-10-06T04:55:14.964Z,1004.7
2018-10-06T04:55:41.094Z,1004.7
2018-10-06T04:56:07.275Z,1004.72
2018-10-06T04:56:33.482Z,1004.7
2018-10-06T04:56:59.634Z,1004.69
2018-10-06T04:57:25.786Z,1004.7
2018-10-06T04:57:51.948Z,1004.7
2018-10-06T04:58:18.106Z,1004.69
2018-10-06T04:58:44.238Z,1004.69
2018-10-06T04:59:10.394Z,1004.71
2018-10-06T04:59:36.582Z,1004.69
2018-10-06T05:00:02.658Z,1004.7
2018-10-06T05:00:28.823Z,1004.71
2018-10-06T05:00:54.971Z,1004.68
2018-10-06T05:01:21.130Z,1004.68
2018-10-06T05:01:47.291Z,1004.72
2018-10-06T05:02:13.419Z,1004.73
2018-10-06T05:02:39.549Z,1004.68
2018-10-06T05:03:05.708Z,1004.71
2018-10-06T05:03:31.972Z,1004.69
2018-10-06T05:03:58.063Z,1004.69
2018-10-06T05:04:24.196Z,1004.68
2018-10-06T05:04:50.325Z,1004.68
2018-10-06T05:05:16.479Z,1004.67
2018-10-06T05:05:42.633Z,1004.71
2018-10-06T05:06:08.790Z,1004.68
2018-10-06T05:06:34.923Z,1004.69
2018-10-06T05:07:01.111Z,1004.66
2018-10-06T05:07:27.259Z,1004.64
2018-10-06T05:07:53.392Z,1004.64
2018-10-06T05:08:19.551Z,1004.63
2018-10-06T05:08:45.712Z,1004.64
2018-10-06T05:09:11.899Z,1004.61
2018-10-06T05:09:38.026Z,1004.59
2018-10-06T05:10:04.161Z,1004.6
2018-10-06T05:10:30.292Z,1004.58
2018-10-06T05:10:56.493Z,1004.54
2018-10-06T05:11:22.605Z,1004.55
2018-10-06T05:11:48.741Z,1004.57
2018-10-06T05:12:14.912Z,1004.55
2018-10-06T05:12:41.058Z,1004.5
2018-10-06T05:13:07.193Z,1004.51
2018-10-06T05:13:33.374Z,1004.5
2018-10-06T05:13:59.554Z,1004.54
2018-10-06T05:14:25.690Z,1004.53
2018-10-06T05:14:51.824Z,1004.5
2018-10-06T05:15:18.010Z,1004.49
2018-10-06T05:15:44.142Z,1004.5
2018-10-06T05:16:10.272Z,1004.52
2018-10-06T05:16:36.418Z,1004.52
2018-10-06T05:17:02.542Z,1004.52
2018-10-06T05:17:28.697Z,1004.52